Historyczne dane pomiarowe

Dodano dane terminowe – wersja testowa.

Dane z okresu 1951-2019

Wersja bazy: 1.34 [2019-03-16, lista zmian], aktualizacja planowana na 2019-04-15

Dane meteo z obszaru Polski uzyskane na podstawie danych udostępnionych przez Instytut Meteorologii i Gospodarki Wodnej – Państwowy Instytut Badawczy.

 

Wybierz Datę:    

       

TemperaturaWilgotnośćZachmurzenieWiatrCiśnienieWidzialnośćZjawiska
 Data    tng td wb rh cc ccl cl cm ch dir g1 g2 mslp ppp      
1999-08-07 00:00:00 11.4--- 8.8 10.084wxwx0wx--1008.7 986.5 0.0---wx
1999-08-07 01:00:00 11.5--- 9.3 10.386wxwx0wx--1008.7 986.5----wx
1999-08-07 02:00:00 11.0--- 9.1 10.088wxwx0wx--1008.0 985.8----wx
1999-08-07 03:00:00 11.6--- 9.0 10.284wxwx0wx--1007.6 985.4----wx
1999-08-07 04:00:00 12.1--- 10.1 11.088wxwx0wx--1007.5 985.4----wx
1999-08-07 05:00:00 15.1--- 12.7 13.786wxwxwxwx2wx--1007.3 985.4----wx
1999-08-07 06:00:00 17.8--- 14.0 15.579wxwxwxwx3wx--1007.0 985.3 0.0---wx
1999-08-07 07:00:00 21.6--- 14.2 17.063wxwxwxwx3wx--1006.7 985.3----wx
1999-08-07 08:00:00 24.0--- 13.7 17.653wxwxwx3wx--1006.5 985.3----wx
1999-08-07 09:00:00 25.2--- 13.7 18.049wxwxwx3wx--1006.5 985.3----wx
1999-08-07 10:00:00 25.8--- 13.7 18.247wxwxwx3wx--1006.4 985.3----wx
1999-08-07 11:00:00 27.8--- 13.1 18.640wxwxwx2wx--1006.3 985.3----wx
1999-08-07 12:00:00 28.6--- 11.6 18.235wxwxwx3wx--1006.0 985.1 0.0---wx
1999-08-07 13:00:00 28.8--- 11.5 18.234wxwxwx4wx--1005.6 984.7----wx
1999-08-07 14:00:00 27.6--- 13.2 18.641wxwxwx3wx--1005.4 984.4----wx
1999-08-07 15:00:00 26.0--- 13.5 18.246wxwxwx3wx--1005.2 984.1----wx
1999-08-07 16:00:00 26.0--- 14.3 18.649wxwxwx3wx--1005.4 984.3----wx
1999-08-07 17:00:00 24.2--- 15.8 18.859wxwx3wx--1005.9 984.7----wx
1999-08-07 18:00:00 22.4--- 16.2 18.468wxwx2wx--1006.3 984.9 0.0---wx
1999-08-07 19:00:00 19.2--- 14.7 16.475wxwx2wx--1007.0 985.4----wx
1999-08-07 20:00:00 18.0--- 13.7 15.476wxwx2wx--1007.2 985.5----wx
1999-08-07 21:00:00 17.4--- 14.5 15.683wxwx2wx--1007.4 985.7----wx
1999-08-07 22:00:00 16.6--- 13.6 14.883wxwx2wx--1007.6 985.8----wx
1999-08-07 23:00:00 15.4--- 13.0 14.086wxwx2wx--1007.7 985.8----wx

 

Źródłem pochodzenia danych jest Instytut Meteorologii i Gospodarki Wodnej – Państwowy Instytut Badawczy. Dane Instytutu Meteorologii i Gospodarki Wodnej – Państwowego Instytutu Badawczego zostały przetworzone.

Dane źródłowe można odnaleźć na stronie https://dane.imgw.pl